Dades meteomassalio
Diari Summary for Juny 14, 2017 Units:  Metric    English   Both
« Previous Day
Next Day »
Diari Semanal Mensual Anual Personalitzat
  Maxima: Minima: Mijana:
Temperatura: 36.7 °C 17.3 °C 27.9 °C
Rosada: 15.8 °C 9.1 °C 12.7 °C
Humitat: 67 % 27 % 41 %
Velocitat del vent: 22.2 km/h 0.0 km/h 5.2 km/h
Racha vent: 22.2 km/h - -
Vent:- - East
Pressio: 1013.1 hPa 1009.4 hPa -
Pluja: 0.0 mm    
Historical Graphs
 
 
Tabular Data for Juny 14, 2017
Time Temperature Dew Point Pressure Wind Wind Speed Wind Gust Humidity Rainfall Rate (Hourly) solar Conditions
00:03 26.1 °C 9.9 °C 1011.7 hPa Calm     36 % 0.0 mm 0.0 W/m2 CLR
00:08 25.9 °C 9.3 °C 1011.7 hPa Calm     35 % 0.0 mm 0.0 W/m2 CLR
00:13 25.7 °C 9.1 °C 1011.7 hPa Calm     35 % 0.0 mm 0.0 W/m2 CLR
00:18 25.4 °C 9.7 °C 1011.4 hPa Calm     37 % 0.0 mm 0.0 W/m2 CLR
00:23 25.2 °C 10.6 °C 1011.7 hPa Calm     40 % 0.0 mm 0.0 W/m2 CLR
00:28 24.9 °C 10.3 °C 1011.7 hPa Calm     40 % 0.0 mm 0.0 W/m2 CLR
00:33 24.6 °C 9.7 °C 1011.7 hPa Calm     39 % 0.0 mm 0.0 W/m2 CLR
00:38 24.3 °C 11.6 °C 1011.7 hPa Calm     45 % 0.0 mm 0.0 W/m2 CLR
00:43 23.9 °C 11.6 °C 1011.7 hPa Calm     46 % 0.0 mm 0.0 W/m2 CLR
00:48 23.7 °C 11.3 °C 1011.7 hPa Calm     46 % 0.0 mm 0.0 W/m2 CLR
00:53 23.4 °C 11.4 °C 1011.7 hPa Calm     47 % 0.0 mm 0.0 W/m2 CLR
00:58 23.2 °C 11.2 °C 1011.7 hPa Calm     47 % 0.0 mm 0.0 W/m2 CLR
01:03 23.1 °C 11.4 °C 1011.7 hPa Calm     48 % 0.0 mm 0.0 W/m2 CLR
01:08 22.8 °C 11.2 °C 1011.7 hPa Calm     48 % 0.0 mm 0.0 W/m2 CLR
01:13 22.8 °C 11.5 °C 1011.7 hPa Calm     49 % 0.0 mm 0.0 W/m2 CLR
01:18 22.7 °C 10.8 °C 1011.7 hPa Calm     47 % 0.0 mm 0.0 W/m2 CLR
01:23 22.8 °C 10.2 °C 1011.7 hPa Calm     45 % 0.0 mm 0.0 W/m2 CLR
01:28 23.2 °C 10.6 °C 1011.7 hPa Calm     45 % 0.0 mm 0.0 W/m2 CLR
01:33 23.3 °C 11.0 °C 1011.7 hPa Calm     46 % 0.0 mm 0.0 W/m2 CLR
01:38 23.2 °C 10.6 °C 1011.4 hPa Calm     45 % 0.0 mm 0.0 W/m2 CLR
01:43 23.1 °C 11.4 °C 1011.4 hPa Calm     48 % 0.0 mm 0.0 W/m2 CLR
01:48 22.8 °C 10.9 °C 1011.4 hPa Calm     47 % 0.0 mm 0.0 W/m2 CLR
01:53 22.5 °C 10.6 °C 1011.4 hPa Calm     47 % 0.0 mm 0.0 W/m2 CLR
01:58 22.3 °C 10.4 °C 1011.4 hPa Calm     47 % 0.0 mm 0.0 W/m2 CLR
02:03 22.2 °C 10.4 °C 1011.4 hPa SE 3.2 km/h 3.2 km/h 47 % 0.0 mm 0.0 W/m2 CLR
02:08 22.3 °C 10.8 °C 1011.4 hPa Calm     48 % 0.0 mm 0.0 W/m2 CLR
02:11 22.3 °C 11.1 °C 1011.4 hPa Calm     49 % 0.0 mm 0.0 W/m2 CLR
02:16 21.9 °C 10.4 °C 1011.4 hPa Calm     48 % 0.0 mm 0.0 W/m2 CLR
02:21 21.9 °C 9.7 °C 1011.4 hPa Calm     46 % 0.0 mm 0.0 W/m2 CLR
02:26 22.1 °C 9.9 °C 1011.4 hPa Calm     46 % 0.0 mm 0.0 W/m2 CLR
02:36 22.2 °C 9.7 °C 1011.4 hPa North 3.7 km/h 3.7 km/h 45 % 0.0 mm 0.0 W/m2 CLR
02:41 22.2 °C 10.0 °C 1011.4 hPa ENE 1.6 km/h   46 % 0.0 mm 0.0 W/m2 CLR
02:46 22.1 °C 9.6 °C 1011.4 hPa Calm     45 % 0.0 mm 0.0 W/m2 CLR
02:51 22.2 °C 9.7 °C 1011.7 hPa Calm     45 % 0.0 mm 0.0 W/m2 CLR
02:56 22.4 °C 10.2 °C 1011.4 hPa Calm     46 % 0.0 mm 0.0 W/m2 CLR
03:01 22.4 °C 9.9 °C 1011.7 hPa Calm     45 % 0.0 mm 0.0 W/m2 CLR
03:06 22.4 °C 9.9 °C 1011.4 hPa Calm     45 % 0.0 mm 0.0 W/m2 CLR
03:11 22.2 °C 10.4 °C 1011.4 hPa Calm     47 % 0.0 mm 0.0 W/m2 CLR
03:16 21.9 °C 10.7 °C 1011.4 hPa Calm     49 % 0.0 mm 0.0 W/m2 CLR
03:21 21.6 °C 10.4 °C 1011.4 hPa Calm     49 % 0.0 mm 0.0 W/m2 CLR
03:26 21.3 °C 11.0 °C 1011.4 hPa Calm     52 % 0.0 mm 0.0 W/m2 CLR
03:31 20.9 °C 10.4 °C 1011.4 hPa Calm     51 % 0.0 mm 0.0 W/m2 CLR
03:36 20.8 °C 10.6 °C 1011.4 hPa Calm     52 % 0.0 mm 0.0 W/m2 CLR
03:41 20.7 °C 10.4 °C 1011.4 hPa Calm     52 % 0.0 mm 0.0 W/m2 CLR
03:46 20.6 °C 10.4 °C 1011.4 hPa Calm     52 % 0.0 mm 0.0 W/m2 CLR
03:51 20.5 °C 10.6 °C 1011.4 hPa Calm     53 % 0.0 mm 0.0 W/m2 CLR
03:56 20.4 °C 10.8 °C 1011.4 hPa Calm     54 % 0.0 mm 0.0 W/m2 CLR
04:01 20.4 °C 11.1 °C 1011.7 hPa Calm     55 % 0.0 mm 0.0 W/m2 CLR
04:06 20.3 °C 11.2 °C 1011.7 hPa Calm     56 % 0.0 mm 0.0 W/m2 CLR
04:11 20.1 °C 11.1 °C 1011.7 hPa Calm     56 % 0.0 mm 0.0 W/m2 CLR
04:16 20.0 °C 11.2 °C 1011.7 hPa Calm     57 % 0.0 mm 0.0 W/m2 CLR
04:21 19.8 °C 10.5 °C 1011.7 hPa Calm     55 % 0.0 mm 0.0 W/m2 CLR
04:26 19.8 °C 10.7 °C 1011.4 hPa Calm     56 % 0.0 mm 0.0 W/m2 CLR
04:31 19.6 °C 10.8 °C 1011.4 hPa Calm     57 % 0.0 mm 0.0 W/m2 CLR
04:36 19.3 °C 10.6 °C 1011.7 hPa NNW 1.9 km/h   57 % 0.0 mm 0.0 W/m2 CLR
04:41 19.4 °C 10.4 °C 1011.7 hPa Calm     56 % 0.0 mm 0.0 W/m2 CLR
04:46 19.6 °C 10.8 °C 1011.7 hPa Calm     57 % 0.0 mm 0.0 W/m2 CLR
04:51 19.5 °C 11.0 °C 1011.7 hPa Calm     58 % 0.0 mm 0.0 W/m2 CLR
04:56 19.4 °C 11.2 °C 1011.7 hPa Calm     59 % 0.0 mm 0.0 W/m2 CLR
05:01 19.2 °C 10.9 °C 1011.7 hPa Calm     59 % 0.0 mm 0.0 W/m2 CLR
05:06 19.1 °C 10.9 °C 1011.7 hPa Calm     59 % 0.0 mm 0.0 W/m2 CLR
05:11 19.1 °C 10.3 °C 1011.7 hPa Calm     57 % 0.0 mm 0.0 W/m2 CLR
05:16 19.0 °C 10.3 °C 1011.7 hPa Calm     57 % 0.0 mm 0.0 W/m2 CLR
05:21 18.9 °C 10.8 °C 1011.7 hPa Calm     59 % 0.0 mm 0.0 W/m2 CLR
05:26 18.8 °C 10.8 °C 1011.7 hPa Calm     60 % 0.0 mm 0.0 W/m2 CLR
05:31 18.7 °C 10.7 °C 1011.7 hPa Calm     60 % 0.0 mm 0.0 W/m2 CLR
05:36 18.6 °C 10.6 °C 1011.7 hPa Calm     60 % 0.0 mm 0.0 W/m2 CLR
05:41 18.4 °C 10.8 °C 1011.7 hPa Calm     61 % 0.0 mm 0.0 W/m2 CLR
05:46 18.3 °C 10.7 °C 1011.7 hPa Calm     61 % 0.0 mm 0.0 W/m2 CLR
05:51 18.3 °C 10.6 °C 1012.1 hPa Calm     61 % 0.0 mm 0.0 W/m2 CLR
05:56 18.2 °C 10.8 °C 1012.1 hPa Calm     62 % 0.0 mm 0.0 W/m2 CLR
06:01 18.1 °C 11.1 °C 1012.1 hPa Calm     64 % 0.0 mm 0.0 W/m2 CLR
06:06 17.9 °C 11.0 °C 1012.1 hPa Calm     64 % 0.0 mm 0.0 W/m2 CLR
06:11 17.8 °C 10.7 °C 1012.1 hPa Calm     63 % 0.0 mm 0.0 W/m2 CLR
06:16 17.7 °C 10.8 °C 1012.1 hPa Calm     64 % 0.0 mm 0.0 W/m2 OVC
06:21 17.7 °C 10.8 °C 1012.1 hPa Calm     64 % 0.0 mm 0.0 W/m2 OVC
06:26 17.6 °C 10.9 °C 1012.1 hPa Calm     65 % 0.0 mm 0.0 W/m2 OVC
06:31 17.5 °C 11.1 °C 1012.1 hPa Calm     66 % 0.0 mm 5.0 W/m2 OVC
06:33 17.5 °C 10.8 °C 1012.1 hPa Calm     65 % 0.0 mm 7.0 W/m2 BKN
06:38 17.4 °C 10.8 °C 1012.1 hPa Calm     65 % 0.0 mm 9.0 W/m2 BKN
06:43 17.4 °C 10.5 °C 1012.1 hPa Calm     64 % 0.0 mm 12.0 W/m2 BKN
06:48 17.4 °C 10.6 °C 1012.1 hPa Calm     64 % 0.0 mm 16.0 W/m2 BKN
06:53 17.4 °C 10.8 °C 1012.4 hPa Calm     65 % 0.0 mm 19.0 W/m2 BKN
06:58 17.4 °C 11.2 °C 1012.4 hPa Calm     67 % 0.0 mm 23.0 W/m2 BKN
07:03 17.3 °C 10.4 °C 1012.4 hPa Calm     64 % 0.0 mm 28.0 W/m2 BKN
07:08 17.6 °C 10.9 °C 1012.4 hPa Calm     65 % 0.0 mm 37.0 W/m2 BKN
07:13 17.7 °C 10.8 °C 1012.4 hPa Calm     64 % 0.0 mm 44.0 W/m2 BKN
07:18 17.8 °C 10.9 °C 1012.4 hPa Calm     64 % 0.0 mm 54.0 W/m2 SCT
07:23 18.1 °C 11.1 °C 1012.8 hPa Calm     64 % 0.0 mm 63.0 W/m2 SCT
07:28 18.3 °C 11.1 °C 1012.8 hPa Calm     63 % 0.0 mm 74.0 W/m2 SCT
07:33 18.5 °C 11.1 °C 1012.8 hPa Calm     62 % 0.0 mm 86.0 W/m2 FEW
07:38 18.7 °C 11.0 °C 1012.8 hPa Calm     61 % 0.0 mm 102.0 W/m2 CLR
07:43 18.9 °C 11.2 °C 1013.1 hPa Calm     61 % 0.0 mm 116.0 W/m2 CLR
07:48 19.0 °C 10.8 °C 1012.8 hPa Calm     59 % 0.0 mm 132.0 W/m2 CLR
07:53 19.2 °C 11.3 °C 1013.1 hPa Calm     60 % 0.0 mm 146.0 W/m2 CLR
07:58 19.6 °C 11.4 °C 1013.1 hPa Calm     59 % 0.0 mm 165.0 W/m2 CLR
08:03 20.0 °C 11.2 °C 1013.1 hPa Calm     57 % 0.0 mm 181.0 W/m2 CLR
08:08 20.3 °C 11.5 °C 1013.1 hPa Calm     57 % 0.0 mm 195.0 W/m2 CLR
08:13 20.8 °C 11.4 °C 1013.1 hPa Calm     55 % 0.0 mm 211.0 W/m2 CLR
08:18 21.2 °C 11.6 °C 1013.1 hPa Calm     54 % 0.0 mm 229.0 W/m2 CLR
08:23 21.5 °C 11.2 °C 1013.1 hPa Calm     52 % 0.0 mm 244.0 W/m2 CLR
08:28 21.9 °C 11.6 °C 1013.1 hPa Calm     52 % 0.0 mm 258.0 W/m2 CLR
08:33 22.4 °C 11.2 °C 1013.1 hPa Calm     49 % 0.0 mm 274.0 W/m2 CLR
08:38 22.8 °C 11.9 °C 1013.1 hPa Calm     50 % 0.0 mm 290.0 W/m2 CLR
08:43 23.3 °C 11.3 °C 1013.1 hPa Calm     47 % 0.0 mm 306.0 W/m2 CLR
08:48 23.7 °C 11.7 °C 1013.1 hPa Calm     47 % 0.0 mm 322.0 W/m2 CLR
08:53 24.1 °C 11.4 °C 1013.1 hPa Calm     45 % 0.0 mm 338.0 W/m2 CLR
08:58 24.4 °C 11.7 °C 1012.8 hPa Calm     45 % 0.0 mm 352.0 W/m2 CLR
09:03 24.7 °C 12.0 °C 1012.8 hPa Calm     45 % 0.0 mm 369.0 W/m2 CLR
09:08 25.0 °C 11.9 °C 1013.1 hPa Calm     44 % 0.0 mm 387.0 W/m2 CLR
09:13 25.2 °C 12.1 °C 1012.8 hPa Calm     44 % 0.0 mm 401.0 W/m2 CLR
09:18 25.4 °C 12.2 °C 1013.1 hPa Calm     44 % 0.0 mm 415.0 W/m2 CLR
09:23 25.6 °C 12.1 °C 1013.1 hPa Calm     43 % 0.0 mm 431.0 W/m2 CLR
09:28 26.0 °C 11.3 °C 1013.1 hPa Calm     40 % 0.0 mm 448.0 W/m2 CLR
09:33 26.4 °C 11.7 °C 1013.1 hPa Calm     40 % 0.0 mm 464.0 W/m2 CLR
09:38 26.9 °C 10.6 °C 1012.8 hPa Calm     36 % 0.0 mm 480.0 W/m2 CLR
09:43 27.3 °C 11.3 °C 1012.8 hPa Calm     37 % 0.0 mm 496.0 W/m2 CLR
09:48 27.4 °C 11.0 °C 1012.8 hPa Calm     36 % 0.0 mm 513.0 W/m2 CLR
09:53 27.5 °C 11.1 °C 1013.1 hPa Calm     36 % 0.0 mm 526.0 W/m2 CLR
09:59 27.6 °C 11.2 °C 1013.1 hPa Calm     36 % 0.0 mm 540.0 W/m2 CLR
10:09 27.9 °C 11.8 °C 1013.1 hPa Calm     37 % 0.0 mm 570.0 W/m2 CLR
10:14 28.2 °C 11.7 °C 1013.1 hPa Calm     36 % 0.0 mm 580.0 W/m2 CLR
10:19 28.4 °C 11.9 °C 1013.1 hPa ENE 5.6 km/h 5.6 km/h 36 % 0.0 mm 594.0 W/m2 CLR
10:24 28.6 °C 11.7 °C 1013.1 hPa ENE 7.4 km/h 7.4 km/h 35 % 0.0 mm 606.0 W/m2 CLR
10:29 28.8 °C 11.8 °C 1012.8 hPa ENE 9.3 km/h 9.3 km/h 35 % 0.0 mm 621.0 W/m2 CLR
10:34 28.9 °C 11.9 °C 1012.8 hPa ENE 9.3 km/h 9.3 km/h 35 % 0.0 mm 631.0 W/m2 CLR
10:39 29.2 °C 12.2 °C 1012.8 hPa ENE 3.7 km/h 3.7 km/h 35 % 0.0 mm 643.0 W/m2 CLR
10:44 29.4 °C 11.9 °C 1012.8 hPa Calm   0.6 km/h 34 % 0.0 mm 656.0 W/m2 CLR
10:49 29.5 °C 12.0 °C 1012.8 hPa East 13.0 km/h 13.0 km/h 34 % 0.0 mm 670.0 W/m2 CLR
10:54 29.4 °C 11.9 °C 1012.8 hPa East 9.3 km/h 9.3 km/h 34 % 0.0 mm 684.0 W/m2 CLR
10:59 29.4 °C 11.9 °C 1012.8 hPa ENE 13.0 km/h 13.0 km/h 34 % 0.0 mm 693.0 W/m2 CLR
11:04 29.8 °C 13.1 °C 1012.8 hPa ENE 13.0 km/h 13.0 km/h 36 % 0.0 mm 705.0 W/m2 CLR
11:09 30.0 °C 13.7 °C 1012.8 hPa ENE 3.7 km/h 3.7 km/h 37 % 0.0 mm 712.0 W/m2 CLR
11:14 30.4 °C 13.7 °C 1012.8 hPa ENE 3.7 km/h 3.7 km/h 36 % 0.0 mm 728.0 W/m2 CLR
11:19 30.4 °C 13.7 °C 1012.8 hPa ENE 13.0 km/h 13.0 km/h 36 % 0.0 mm 738.0 W/m2 CLR
11:24 30.4 °C 13.7 °C 1012.8 hPa ENE 7.4 km/h 7.4 km/h 36 % 0.0 mm 747.0 W/m2 CLR
11:29 30.5 °C 13.3 °C 1012.8 hPa ENE 13.0 km/h 13.0 km/h 35 % 0.0 mm 759.0 W/m2 CLR
11:34 30.1 °C 12.9 °C 1012.8 hPa NE 13.0 km/h 13.0 km/h 35 % 0.0 mm 772.0 W/m2 CLR
11:39 30.3 °C 13.1 °C 1012.8 hPa ENE 11.3 km/h 11.3 km/h 35 % 0.0 mm 780.0 W/m2 CLR
11:44 30.6 °C 13.4 °C 1012.8 hPa ENE 9.3 km/h 9.3 km/h 35 % 0.0 mm 789.0 W/m2 CLR
11:49 30.6 °C 12.5 °C 1012.8 hPa ENE 12.9 km/h 12.9 km/h 33 % 0.0 mm 800.0 W/m2 CLR
11:54 30.7 °C 12.1 °C 1012.8 hPa ENE 9.3 km/h 9.3 km/h 32 % 0.0 mm 809.0 W/m2 CLR
11:59 30.7 °C 12.6 °C 1012.8 hPa East 13.0 km/h 13.0 km/h 33 % 0.0 mm 819.0 W/m2 CLR
12:04 31.1 °C 12.4 °C 1012.8 hPa ENE 4.8 km/h 4.8 km/h 32 % 0.0 mm 828.0 W/m2 CLR
12:09 31.3 °C 11.7 °C 1012.8 hPa Calm     30 % 0.0 mm 837.0 W/m2 CLR
12:14 31.5 °C 11.8 °C 1012.8 hPa NE 1.9 km/h   30 % 0.0 mm 844.0 W/m2 CLR
12:19 31.8 °C 12.6 °C 1012.8 hPa Calm     31 % 0.0 mm 849.0 W/m2 CLR
12:24 32.2 °C 12.9 °C 1012.8 hPa East 6.4 km/h 6.4 km/h 31 % 0.0 mm 856.0 W/m2 CLR
12:29 32.6 °C 12.7 °C 1012.8 hPa NE 3.7 km/h 3.7 km/h 30 % 0.0 mm 865.0 W/m2 CLR
12:34 32.9 °C 13.0 °C 1012.8 hPa ENE 11.1 km/h 11.1 km/h 30 % 0.0 mm 870.0 W/m2 CLR
12:39 32.9 °C 13.1 °C 1012.8 hPa NE 1.9 km/h   30 % 0.0 mm 875.0 W/m2 CLR
12:44 32.9 °C 13.0 °C 1012.8 hPa ENE 7.4 km/h 7.4 km/h 30 % 0.0 mm 882.0 W/m2 CLR
12:49 33.1 °C 13.7 °C 1012.8 hPa NE 9.3 km/h 9.3 km/h 31 % 0.0 mm 888.0 W/m2 CLR
12:54 33.2 °C 13.8 °C 1012.8 hPa ENE 3.2 km/h 3.2 km/h 31 % 0.0 mm 893.0 W/m2 CLR
12:59 33.5 °C 14.1 °C 1012.4 hPa NE 11.1 km/h 11.1 km/h 31 % 0.0 mm 896.0 W/m2 CLR
13:04 33.5 °C 13.6 °C 1012.4 hPa ENE 7.4 km/h 7.4 km/h 30 % 0.0 mm 900.0 W/m2 CLR
13:09 33.6 °C 13.7 °C 1012.4 hPa NE 8.0 km/h 8.0 km/h 30 % 0.0 mm 902.0 W/m2 CLR
13:14 33.7 °C 14.2 °C 1012.4 hPa NE 7.4 km/h 7.4 km/h 31 % 0.0 mm 909.0 W/m2 CLR
13:19 33.9 °C 13.9 °C 1012.4 hPa NNE 13.0 km/h 13.0 km/h 30 % 0.0 mm 911.0 W/m2 CLR
13:24 33.9 °C 14.4 °C 1012.4 hPa ENE 8.0 km/h 8.0 km/h 31 % 0.0 mm 912.0 W/m2 CLR
13:29 34.2 °C 14.6 °C 1012.1 hPa NNE 11.1 km/h 11.1 km/h 31 % 0.0 mm 914.0 W/m2 CLR
13:34 34.4 °C 14.3 °C 1012.1 hPa Calm     30 % 0.0 mm 916.0 W/m2 CLR
13:39 34.4 °C 14.8 °C 1012.1 hPa Calm     31 % 0.0 mm 918.0 W/m2 CLR
13:44 34.5 °C 14.9 °C 1012.1 hPa NE 9.7 km/h 9.7 km/h 31 % 0.0 mm 921.0 W/m2 CLR
13:49 34.7 °C 15.1 °C 1012.1 hPa Calm     31 % 0.0 mm 919.0 W/m2 CLR
13:54 34.6 °C 14.5 °C 1012.1 hPa NE 14.8 km/h 14.8 km/h 30 % 0.0 mm 921.0 W/m2 CLR
13:59 34.8 °C 15.2 °C 1012.1 hPa NE 9.7 km/h 9.7 km/h 31 % 0.0 mm 925.0 W/m2 CLR
14:04 34.9 °C 14.8 °C 1011.7 hPa East 16.7 km/h 16.7 km/h 30 % 0.0 mm 921.0 W/m2 CLR
14:09 34.7 °C 14.6 °C 1011.7 hPa Calm     30 % 0.0 mm 923.0 W/m2 CLR
14:14 34.7 °C 14.6 °C 1011.7 hPa ESE 9.3 km/h 9.3 km/h 30 % 0.0 mm 921.0 W/m2 CLR
14:19 34.8 °C 14.7 °C 1011.7 hPa SE 1.9 km/h 1.9 km/h 30 % 0.0 mm 921.0 W/m2 CLR
14:24 35.3 °C 14.6 °C 1011.7 hPa ESE 13.0 km/h 13.0 km/h 29 % 0.0 mm 919.0 W/m2 CLR
14:29 35.2 °C 14.5 °C 1011.4 hPa SE 13.0 km/h 13.0 km/h 29 % 0.0 mm 918.0 W/m2 CLR
14:34 35.2 °C 15.1 °C 1011.4 hPa Calm     30 % 0.0 mm 912.0 W/m2 CLR
14:39 35.3 °C 15.1 °C 1011.4 hPa ESE 11.1 km/h 11.1 km/h 30 % 0.0 mm 911.0 W/m2 CLR
14:44 35.5 °C 14.7 °C 1011.4 hPa ENE 3.7 km/h 3.7 km/h 29 % 0.0 mm 909.0 W/m2 CLR
14:49 35.6 °C 14.8 °C 1011.4 hPa ENE 7.4 km/h 7.4 km/h 29 % 0.0 mm 905.0 W/m2 CLR
14:54 35.9 °C 14.6 °C 1011.4 hPa SSE 3.7 km/h 3.7 km/h 28 % 0.0 mm 900.0 W/m2 CLR
14:59 35.8 °C 15.0 °C 1011.1 hPa SE 9.7 km/h 9.7 km/h 29 % 0.0 mm 895.0 W/m2 CLR
15:04 35.6 °C 14.8 °C 1011.1 hPa Calm     29 % 0.0 mm 893.0 W/m2 CLR
15:09 35.8 °C 15.0 °C 1011.1 hPa East 9.3 km/h 9.3 km/h 29 % 0.0 mm 886.0 W/m2 CLR
15:14 35.9 °C 14.6 °C 1011.1 hPa ESE 6.4 km/h 6.4 km/h 28 % 0.0 mm 879.0 W/m2 CLR
15:19 35.8 °C 15.0 °C 1011.1 hPa ENE 13.0 km/h 13.0 km/h 29 % 0.0 mm 875.0 W/m2 CLR
15:24 36.2 °C 14.8 °C 1011.1 hPa NNE 13.0 km/h 13.0 km/h 28 % 0.0 mm 872.0 W/m2 CLR
15:29 36.6 °C 15.1 °C 1010.7 hPa North 11.1 km/h 11.1 km/h 28 % 0.0 mm 863.0 W/m2 CLR
15:34 36.7 °C 14.6 °C 1010.7 hPa ESE 9.3 km/h 9.3 km/h 27 % 0.0 mm 856.0 W/m2 CLR
15:39 36.3 °C 14.8 °C 1010.7 hPa Calm   0.2 km/h 28 % 0.0 mm 847.0 W/m2 CLR
15:44 36.3 °C 15.4 °C 1010.7 hPa East 11.3 km/h 11.3 km/h 29 % 0.0 mm 842.0 W/m2 CLR
15:49 36.3 °C 15.4 °C 1010.7 hPa ENE 13.0 km/h 13.0 km/h 29 % 0.0 mm 835.0 W/m2 CLR
15:54 36.3 °C 15.4 °C 1010.7 hPa East 18.5 km/h 18.5 km/h 29 % 0.0 mm 830.0 W/m2 CLR
15:59 36.2 °C 15.8 °C 1010.7 hPa East 14.8 km/h 14.8 km/h 30 % 0.0 mm 817.0 W/m2 CLR
16:04 36.1 °C 15.2 °C 1010.4 hPa NE 16.7 km/h 16.7 km/h 29 % 0.0 mm 810.0 W/m2 CLR
16:09 36.0 °C 15.7 °C 1010.4 hPa ENE 13.0 km/h 13.0 km/h 30 % 0.0 mm 800.0 W/m2 CLR
16:14 35.9 °C 15.7 °C 1010.4 hPa SE 18.5 km/h 18.5 km/h 30 % 0.0 mm 793.0 W/m2 CLR
16:19 35.9 °C 15.6 °C 1010.4 hPa SE 13.0 km/h 13.0 km/h 30 % 0.0 mm 784.0 W/m2 CLR
16:24 36.1 °C 15.8 °C 1010.4 hPa ESE 11.1 km/h 11.1 km/h 30 % 0.0 mm 772.0 W/m2 CLR
16:29 36.1 °C 15.3 °C 1010.4 hPa East 16.7 km/h 16.7 km/h 29 % 0.0 mm 761.0 W/m2 CLR
16:34 35.9 °C 15.7 °C 1010.4 hPa SE 16.7 km/h 16.7 km/h 30 % 0.0 mm 752.0 W/m2 CLR
16:39 36.0 °C 15.7 °C 1010.0 hPa ESE 18.5 km/h 18.5 km/h 30 % 0.0 mm 744.0 W/m2 CLR
16:44 36.0 °C 15.2 °C 1010.0 hPa East 14.8 km/h 14.8 km/h 29 % 0.0 mm 731.0 W/m2 CLR
16:49 35.8 °C 15.0 °C 1010.0 hPa SE 16.7 km/h 16.7 km/h 29 % 0.0 mm 721.0 W/m2 CLR
16:54 35.6 °C 14.8 °C 1010.0 hPa ESE 20.9 km/h 20.9 km/h 29 % 0.0 mm 710.0 W/m2 CLR
16:59 35.4 °C 14.7 °C 1010.0 hPa ESE 22.2 km/h 22.2 km/h 29 % 0.0 mm 700.0 W/m2 CLR
17:04 35.4 °C 14.7 °C 1010.0 hPa ESE 14.5 km/h 14.5 km/h 29 % 0.0 mm 686.0 W/m2 CLR
17:09 35.4 °C 14.7 °C 1010.0 hPa East 14.8 km/h 14.8 km/h 29 % 0.0 mm 677.0 W/m2 CLR
17:14 35.7 °C 14.9 °C 1010.0 hPa East 13.0 km/h 13.0 km/h 29 % 0.0 mm 664.0 W/m2 CLR
17:19 35.6 °C 14.3 °C 1010.0 hPa East 18.5 km/h 18.5 km/h 28 % 0.0 mm 654.0 W/m2 CLR
17:24 35.5 °C 14.7 °C 1009.7 hPa ESE 22.2 km/h 22.2 km/h 29 % 0.0 mm 640.0 W/m2 CLR
17:30 35.6 °C 13.7 °C 1009.7 hPa ESE 18.5 km/h 18.5 km/h 27 % 0.0 mm 628.0 W/m2 CLR
17:35 35.6 °C 14.3 °C 1009.7 hPa ESE 18.5 km/h 18.5 km/h 28 % 0.0 mm 615.0 W/m2 CLR
17:43 35.6 °C 14.8 °C 1009.7 hPa East 18.5 km/h 18.5 km/h 29 % 0.0 mm 591.0 W/m2 CLR
17:48 35.3 °C 14.6 °C 1009.7 hPa ESE 19.3 km/h 19.3 km/h 29 % 0.0 mm 573.0 W/m2 CLR
17:53 35.2 °C 13.9 °C 1009.7 hPa ESE 22.2 km/h 22.2 km/h 28 % 0.0 mm 559.0 W/m2 CLR
17:58 35.1 °C 14.3 °C 1009.7 hPa ESE 16.7 km/h 16.7 km/h 29 % 0.0 mm 547.0 W/m2 CLR
18:03 35.1 °C 14.4 °C 1009.7 hPa East 16.1 km/h 16.1 km/h 29 % 0.0 mm 529.0 W/m2 CLR
18:08 35.1 °C 14.9 °C 1009.7 hPa ESE 18.5 km/h 18.5 km/h 30 % 0.0 mm 515.0 W/m2 CLR
18:13 35.1 °C 14.4 °C 1009.7 hPa SE 20.4 km/h 20.4 km/h 29 % 0.0 mm 501.0 W/m2 CLR
18:18 35.0 °C 14.8 °C 1009.7 hPa SE 16.1 km/h 16.1 km/h 30 % 0.0 mm 487.0 W/m2 CLR
18:23 35.0 °C 14.8 °C 1009.7 hPa East 19.3 km/h 19.3 km/h 30 % 0.0 mm 468.0 W/m2 CLR
18:28 34.9 °C 14.7 °C 1009.7 hPa SE 20.9 km/h 20.9 km/h 30 % 0.0 mm 454.0 W/m2 CLR
18:33 34.9 °C 14.7 °C 1009.4 hPa ESE 9.3 km/h 9.3 km/h 30 % 0.0 mm 439.0 W/m2 CLR
18:38 35.0 °C 14.8 °C 1009.7 hPa SE 18.5 km/h 18.5 km/h 30 % 0.0 mm 424.0 W/m2 CLR
18:43 35.0 °C 14.8 °C 1009.7 hPa ESE 18.5 km/h 18.5 km/h 30 % 0.0 mm 404.0 W/m2 CLR
18:48 35.0 °C 15.3 °C 1009.4 hPa East 13.0 km/h 13.0 km/h 31 % 0.0 mm 390.0 W/m2 CLR
18:53 34.9 °C 15.3 °C 1009.4 hPa ESE 18.5 km/h 18.5 km/h 31 % 0.0 mm 376.0 W/m2 CLR
18:58 34.9 °C 15.3 °C 1009.4 hPa ESE 13.0 km/h 13.0 km/h 31 % 0.0 mm 360.0 W/m2 CLR
19:03 34.9 °C 15.3 °C 1009.4 hPa SE 14.8 km/h 14.8 km/h 31 % 0.0 mm 343.0 W/m2 CLR
19:08 34.8 °C 14.7 °C 1009.4 hPa ESE 16.7 km/h 16.7 km/h 30 % 0.0 mm 323.0 W/m2 CLR
19:13 34.7 °C 14.6 °C 1009.4 hPa SE 13.0 km/h 13.0 km/h 30 % 0.0 mm 309.0 W/m2 CLR
19:18 34.7 °C 15.1 °C 1009.4 hPa SE 14.8 km/h 14.8 km/h 31 % 0.0 mm 299.0 W/m2 CLR
19:23 34.6 °C 15.0 °C 1009.4 hPa SE 16.7 km/h 16.7 km/h 31 % 0.0 mm 288.0 W/m2 CLR
19:28 34.6 °C 14.9 °C 1009.4 hPa ESE 12.9 km/h 12.9 km/h 31 % 0.0 mm 274.0 W/m2 CLR
19:33 34.6 °C 13.9 °C 1009.4 hPa ESE 12.9 km/h 12.9 km/h 29 % 0.0 mm 255.0 W/m2 CLR
19:38 34.5 °C 14.9 °C 1009.7 hPa SE 16.1 km/h 16.1 km/h 31 % 0.0 mm 243.0 W/m2 CLR
19:43 34.3 °C 14.2 °C 1009.7 hPa SSE 16.7 km/h 16.7 km/h 30 % 0.0 mm 229.0 W/m2 CLR
19:48 34.2 °C 14.1 °C 1009.7 hPa SE 16.7 km/h 16.7 km/h 30 % 0.0 mm 213.0 W/m2 CLR
19:53 34.0 °C 14.5 °C 1009.7 hPa East 16.7 km/h 16.7 km/h 31 % 0.0 mm 192.0 W/m2 CLR
19:58 33.7 °C 14.7 °C 1009.7 hPa ESE 5.6 km/h 5.6 km/h 32 % 0.0 mm 174.0 W/m2 CLR
20:03 33.6 °C 14.6 °C 1009.7 hPa ESE 12.9 km/h 12.9 km/h 32 % 0.0 mm 160.0 W/m2 CLR
20:08 33.4 °C 14.5 °C 1009.7 hPa ESE 14.8 km/h 14.8 km/h 32 % 0.0 mm 144.0 W/m2 CLR
20:13 33.3 °C 14.3 °C 1009.7 hPa ESE 13.0 km/h 13.0 km/h 32 % 0.0 mm 128.0 W/m2 CLR
20:18 33.1 °C 14.7 °C 1009.7 hPa ESE 13.0 km/h 13.0 km/h 33 % 0.0 mm 113.0 W/m2 CLR
20:23 32.8 °C 14.4 °C 1010.0 hPa ESE 14.8 km/h 14.8 km/h 33 % 0.0 mm 98.0 W/m2 CLR
20:28 32.6 °C 14.7 °C 1009.7 hPa ESE 11.3 km/h 11.3 km/h 34 % 0.0 mm 88.0 W/m2 CLR
20:33 32.5 °C 14.6 °C 1009.7 hPa ESE 11.1 km/h 11.1 km/h 34 % 0.0 mm 74.0 W/m2 FEW
20:38 32.3 °C 14.4 °C 1010.0 hPa ESE 8.0 km/h 8.0 km/h 34 % 0.0 mm 65.0 W/m2 FEW
20:43 32.1 °C 14.3 °C 1010.0 hPa ESE 13.0 km/h 13.0 km/h 34 % 0.0 mm 47.0 W/m2 SCT
20:48 31.9 °C 14.5 °C 1009.7 hPa ESE 14.8 km/h 14.8 km/h 35 % 0.0 mm 42.0 W/m2 BKN
20:53 31.7 °C 14.4 °C 1010.0 hPa East 9.3 km/h 9.3 km/h 35 % 0.0 mm 39.0 W/m2 BKN
20:58 31.5 °C 14.6 °C 1010.0 hPa ESE 7.4 km/h 7.4 km/h 36 % 0.0 mm 30.0 W/m2 BKN
21:03 31.3 °C 14.5 °C 1010.0 hPa ESE 12.9 km/h 12.9 km/h 36 % 0.0 mm 26.0 W/m2 BKN
21:08 31.2 °C 14.4 °C 1010.0 hPa SE 5.6 km/h 5.6 km/h 36 % 0.0 mm 21.0 W/m2 BKN
21:13 31.1 °C 14.3 °C 1010.0 hPa Calm     36 % 0.0 mm 18.0 W/m2 BKN
21:18 31.0 °C 14.2 °C 1010.0 hPa Calm     36 % 0.0 mm 14.0 W/m2 BKN
21:23 30.8 °C 14.1 °C 1010.0 hPa Calm     36 % 0.0 mm 12.0 W/m2 BKN
21:28 30.6 °C 14.3 °C 1010.0 hPa Calm     37 % 0.0 mm 9.0 W/m2 BKN
21:29 30.6 °C 14.2 °C 1010.0 hPa Calm     37 % 0.0 mm 9.0 W/m2 BKN
21:34 30.3 °C 14.0 °C 1010.0 hPa Calm     37 % 0.0 mm 5.0 W/m2 OVC
21:39 30.0 °C 14.1 °C 1010.4 hPa Calm     38 % 0.0 mm 0.0 W/m2 OVC
21:44 29.7 °C 13.9 °C 1010.4 hPa Calm     38 % 0.0 mm 0.0 W/m2 CLR
21:49 29.6 °C 13.7 °C 1010.4 hPa Calm     38 % 0.0 mm 0.0 W/m2 CLR
21:54 29.4 °C 14.0 °C 1010.4 hPa Calm     39 % 0.0 mm 0.0 W/m2 CLR
21:59 29.2 °C 13.8 °C 1010.4 hPa Calm     39 % 0.0 mm 0.0 W/m2 CLR
22:04 29.1 °C 14.1 °C 1010.4 hPa Calm     40 % 0.0 mm 0.0 W/m2 CLR
22:09 28.8 °C 13.9 °C 1010.4 hPa Calm     40 % 0.0 mm 0.0 W/m2 CLR
22:14 28.7 °C 13.8 °C 1010.4 hPa Calm     40 % 0.0 mm 0.0 W/m2 CLR
22:19 28.6 °C 13.3 °C 1010.7 hPa Calm     39 % 0.0 mm 0.0 W/m2 CLR
22:24 28.6 °C 13.7 °C 1010.7 hPa Calm     40 % 0.0 mm 0.0 W/m2 CLR
22:29 28.4 °C 13.5 °C 1010.7 hPa Calm     40 % 0.0 mm 0.0 W/m2 CLR
22:34 28.2 °C 13.3 °C 1010.7 hPa Calm     40 % 0.0 mm 0.0 W/m2 CLR
22:39 28.1 °C 13.6 °C 1010.7 hPa Calm     41 % 0.0 mm 0.0 W/m2 CLR
22:44 27.9 °C 13.4 °C 1011.1 hPa Calm     41 % 0.0 mm 0.0 W/m2 CLR
22:49 27.7 °C 13.3 °C 1011.1 hPa Calm     41 % 0.0 mm 0.0 W/m2 CLR
22:54 27.5 °C 13.4 °C 1011.1 hPa Calm     42 % 0.0 mm 0.0 W/m2 CLR
22:59 27.3 °C 13.3 °C 1011.1 hPa Calm     42 % 0.0 mm 0.0 W/m2 CLR
23:04 27.2 °C 13.2 °C 1011.1 hPa Calm     42 % 0.0 mm 0.0 W/m2 CLR
23:09 27.1 °C 13.1 °C 1011.1 hPa Calm     42 % 0.0 mm 0.0 W/m2 CLR
23:14 27.0 °C 13.3 °C 1011.1 hPa Calm     43 % 0.0 mm 0.0 W/m2 CLR
23:19 26.9 °C 13.3 °C 1011.1 hPa Calm     43 % 0.0 mm 0.0 W/m2 CLR
23:24 26.8 °C 13.2 °C 1011.1 hPa Calm     43 % 0.0 mm 0.0 W/m2 CLR
23:29 26.8 °C 13.2 °C 1011.1 hPa Calm     43 % 0.0 mm 0.0 W/m2 CLR
23:34 26.7 °C 13.4 °C 1011.1 hPa Calm     44 % 0.0 mm 0.0 W/m2 CLR
23:39 26.5 °C 13.3 °C 1011.1 hPa Calm     44 % 0.0 mm 0.0 W/m2 CLR
23:44 26.3 °C 13.4 °C 1011.1 hPa Calm     45 % 0.0 mm 0.0 W/m2 CLR
23:49 26.2 °C 13.6 °C 1011.1 hPa Calm     46 % 0.0 mm 0.0 W/m2 CLR
23:54 26.0 °C 13.5 °C 1011.1 hPa Calm     46 % 0.0 mm 0.0 W/m2 CLR
23:59 25.9 °C 13.7 °C 1011.1 hPa Calm     47 % 0.0 mm 0.0 W/m2 CLR
Lo Temps de Massalio
Compliments of Weather Underground - 1.25 mb